sensor_id;sensor_type;location;lat;lon;timestamp;pressure;altitude;pressure_sealevel;temperature;humidity
62164;BME280;48149;51.132;7.178;2022-08-19T00:01:33;98449.41;;;23.94;100.00
62164;BME280;48149;51.132;7.178;2022-08-19T00:04:00;98463.41;;;23.55;100.00
62164;BME280;48149;51.132;7.178;2022-08-19T00:06:26;98460.56;;;23.74;100.00
62164;BME280;48149;51.132;7.178;2022-08-19T00:08:52;98465.91;;;23.74;100.00
62164;BME280;48149;51.132;7.178;2022-08-19T00:11:17;98464.13;;;23.47;100.00
62164;BME280;48149;51.132;7.178;2022-08-19T00:13:43;98465.19;;;23.46;100.00
62164;BME280;48149;51.132;7.178;2022-08-19T00:16:10;98463.91;;;23.30;100.00
62164;BME280;48149;51.132;7.178;2022-08-19T00:18:35;98463.91;;;23.30;100.00
62164;BME280;48149;51.132;7.178;2022-08-19T00:21:01;98461.63;;;23.23;100.00
62164;BME280;48149;51.132;7.178;2022-08-19T00:23:27;98460.84;;;23.23;100.00
62164;BME280;48149;51.132;7.178;2022-08-19T00:25:52;98469.75;;;23.32;100.00
62164;BME280;48149;51.132;7.178;2022-08-19T00:28:18;98458.69;;;22.98;100.00
62164;BME280;48149;51.132;7.178;2022-08-19T00:30:50;98461.66;;;22.82;100.00
62164;BME280;48149;51.132;7.178;2022-08-19T00:33:16;98457.72;;;22.94;100.00
62164;BME280;48149;51.132;7.178;2022-08-19T00:35:43;98461.47;;;23.06;100.00
62164;BME280;48149;51.132;7.178;2022-08-19T00:38:08;98463.75;;;22.99;100.00
62164;BME280;48149;51.132;7.178;2022-08-19T00:40:33;98466.47;;;23.49;100.00
62164;BME280;48149;51.132;7.178;2022-08-19T00:42:59;98464.06;;;23.61;100.00
62164;BME280;48149;51.132;7.178;2022-08-19T00:45:25;98462.75;;;23.22;100.00
62164;BME280;48149;51.132;7.178;2022-08-19T00:47:51;98453.94;;;23.22;100.00
62164;BME280;48149;51.132;7.178;2022-08-19T00:50:17;98455.44;;;23.42;100.00
62164;BME280;48149;51.132;7.178;2022-08-19T00:52:45;98448.59;;;23.22;100.00
62164;BME280;48149;51.132;7.178;2022-08-19T00:55:16;98449.56;;;23.40;100.00
62164;BME280;48149;51.132;7.178;2022-08-19T00:57:44;98454.31;;;23.43;100.00
62164;BME280;48149;51.132;7.178;2022-08-19T01:00:12;98450.94;;;23.37;100.00
62164;BME280;48149;51.132;7.178;2022-08-19T01:02:41;98456.91;;;23.48;100.00
62164;BME280;48149;51.132;7.178;2022-08-19T01:05:08;98460.63;;;23.60;100.00
62164;BME280;48149;51.132;7.178;2022-08-19T01:07:35;98460.63;;;23.33;100.00
62164;BME280;48149;51.132;7.178;2022-08-19T01:10:03;98456.69;;;23.30;100.00
62164;BME280;48149;51.132;7.178;2022-08-19T01:12:29;98462.25;;;23.20;100.00
62164;BME280;48149;51.132;7.178;2022-08-19T01:14:55;98463.72;;;23.26;100.00
62164;BME280;48149;51.132;7.178;2022-08-19T01:17:20;98460.19;;;23.04;100.00
62164;BME280;48149;51.132;7.178;2022-08-19T01:19:46;98458.91;;;22.88;100.00
62164;BME280;48149;51.132;7.178;2022-08-19T01:24:38;98453.84;;;22.86;100.00
62164;BME280;48149;51.132;7.178;2022-08-19T01:27:04;98457.41;;;22.68;100.00
62164;BME280;48149;51.132;7.178;2022-08-19T01:29:29;98453.56;;;22.88;100.00
62164;BME280;48149;51.132;7.178;2022-08-19T01:31:54;98451.19;;;23.13;100.00
62164;BME280;48149;51.132;7.178;2022-08-19T01:34:21;98445.44;;;22.93;100.00
62164;BME280;48149;51.132;7.178;2022-08-19T01:36:47;98449.13;;;22.97;100.00
62164;BME280;48149;51.132;7.178;2022-08-19T01:39:16;98439.47;;;23.23;100.00
62164;BME280;48149;51.132;7.178;2022-08-19T01:44:13;98444.44;;;22.89;100.00
62164;BME280;48149;51.132;7.178;2022-08-19T01:46:38;98437.50;;;23.28;100.00
62164;BME280;48149;51.132;7.178;2022-08-19T01:49:04;98437.00;;;23.26;100.00
62164;BME280;48149;51.132;7.178;2022-08-19T01:51:30;98432.78;;;23.25;100.00
62164;BME280;48149;51.132;7.178;2022-08-19T01:53:56;98433.13;;;23.32;100.00
62164;BME280;48149;51.132;7.178;2022-08-19T01:56:22;98424.06;;;23.20;100.00
62164;BME280;48149;51.132;7.178;2022-08-19T01:58:52;98429.41;;;23.20;100.00
62164;BME280;48149;51.132;7.178;2022-08-19T02:01:19;98425.09;;;22.97;100.00
62164;BME280;48149;51.132;7.178;2022-08-19T02:03:45;98435.75;;;22.83;100.00
62164;BME280;48149;51.132;7.178;2022-08-19T02:06:11;98435.38;;;22.90;100.00
62164;BME280;48149;51.132;7.178;2022-08-19T02:08:37;98436.75;;;22.87;100.00
62164;BME280;48149;51.132;7.178;2022-08-19T02:11:03;98437.88;;;22.54;100.00
62164;BME280;48149;51.132;7.178;2022-08-19T02:13:28;98436.91;;;22.63;100.00
62164;BME280;48149;51.132;7.178;2022-08-19T02:15:53;98437.47;;;22.33;100.00
62164;BME280;48149;51.132;7.178;2022-08-19T02:18:19;98441.41;;;22.36;100.00
62164;BME280;48149;51.132;7.178;2022-08-19T02:20:44;98448.50;;;22.26;100.00
62164;BME280;48149;51.132;7.178;2022-08-19T02:23:12;98440.94;;;22.01;100.00
62164;BME280;48149;51.132;7.178;2022-08-19T02:25:37;98438.16;;;22.39;100.00
62164;BME280;48149;51.132;7.178;2022-08-19T02:28:03;98442.50;;;22.34;100.00
62164;BME280;48149;51.132;7.178;2022-08-19T02:30:28;98434.03;;;22.60;100.00
62164;BME280;48149;51.132;7.178;2022-08-19T02:32:53;98437.13;;;22.53;100.00
62164;BME280;48149;51.132;7.178;2022-08-19T02:35:18;98435.25;;;22.67;100.00
62164;BME280;48149;51.132;7.178;2022-08-19T02:37:44;98436.16;;;22.76;100.00
62164;BME280;48149;51.132;7.178;2022-08-19T02:40:28;98441.09;;;22.83;100.00
62164;BME280;48149;51.132;7.178;2022-08-19T02:42:54;98441.41;;;22.68;100.00
62164;BME280;48149;51.132;7.178;2022-08-19T02:45:19;98445.03;;;22.85;100.00
62164;BME280;48149;51.132;7.178;2022-08-19T02:47:46;98448.13;;;22.93;100.00
62164;BME280;48149;51.132;7.178;2022-08-19T02:50:11;98445.16;;;22.94;100.00
62164;BME280;48149;51.132;7.178;2022-08-19T02:52:37;98450.78;;;22.65;100.00
62164;BME280;48149;51.132;7.178;2022-08-19T02:55:04;98458.16;;;22.55;100.00
62164;BME280;48149;51.132;7.178;2022-08-19T02:57:32;98460.38;;;22.80;100.00
62164;BME280;48149;51.132;7.178;2022-08-19T02:59:57;98455.75;;;22.72;100.00
62164;BME280;48149;51.132;7.178;2022-08-19T03:02:24;98457.84;;;22.43;100.00
62164;BME280;48149;51.132;7.178;2022-08-19T03:04:49;98453.50;;;22.60;100.00
62164;BME280;48149;51.132;7.178;2022-08-19T03:07:16;98442.78;;;22.33;100.00
62164;BME280;48149;51.132;7.178;2022-08-19T03:09:43;98446.09;;;22.11;100.00
62164;BME280;48149;51.132;7.178;2022-08-19T03:12:08;98441.88;;;22.24;100.00
62164;BME280;48149;51.132;7.178;2022-08-19T03:14:34;98440.94;;;22.33;100.00
62164;BME280;48149;51.132;7.178;2022-08-19T03:17:00;98439.47;;;22.55;100.00
62164;BME280;48149;51.132;7.178;2022-08-19T03:19:26;98443.03;;;22.64;100.00
62164;BME280;48149;51.132;7.178;2022-08-19T03:21:52;98437.09;;;22.40;100.00
62164;BME280;48149;51.132;7.178;2022-08-19T03:24:17;98439.44;;;22.41;100.00
62164;BME280;48149;51.132;7.178;2022-08-19T03:26:53;98441.25;;;22.46;100.00
62164;BME280;48149;51.132;7.178;2022-08-19T03:29:23;98447.78;;;22.53;100.00
62164;BME280;48149;51.132;7.178;2022-08-19T03:31:48;98450.78;;;22.33;100.00
62164;BME280;48149;51.132;7.178;2022-08-19T03:34:22;98456.63;;;22.35;100.00
62164;BME280;48149;51.132;7.178;2022-08-19T03:36:51;98457.50;;;21.98;100.00
62164;BME280;48149;51.132;7.178;2022-08-19T03:39:16;98451.25;;;21.89;100.00
62164;BME280;48149;51.132;7.178;2022-08-19T03:41:42;98458.88;;;21.77;100.00
62164;BME280;48149;51.132;7.178;2022-08-19T03:44:08;98465.50;;;21.79;100.00
62164;BME280;48149;51.132;7.178;2022-08-19T03:46:35;98472.09;;;21.26;100.00
62164;BME280;48149;51.132;7.178;2022-08-19T03:49:02;98475.19;;;21.33;100.00
62164;BME280;48149;51.132;7.178;2022-08-19T03:51:36;98479.69;;;21.14;100.00
62164;BME280;48149;51.132;7.178;2022-08-19T03:54:03;98473.59;;;21.32;100.00
62164;BME280;48149;51.132;7.178;2022-08-19T03:56:29;98469.50;;;21.21;100.00
62164;BME280;48149;51.132;7.178;2022-08-19T03:58:57;98467.44;;;21.13;100.00
62164;BME280;48149;51.132;7.178;2022-08-19T04:01:24;98473.47;;;21.23;100.00
62164;BME280;48149;51.132;7.178;2022-08-19T04:03:51;98476.50;;;21.36;100.00
62164;BME280;48149;51.132;7.178;2022-08-19T04:06:18;98472.56;;;21.52;100.00
62164;BME280;48149;51.132;7.178;2022-08-19T04:08:46;98478.66;;;21.34;100.00
62164;BME280;48149;51.132;7.178;2022-08-19T04:11:13;98479.06;;;21.41;100.00
62164;BME280;48149;51.132;7.178;2022-08-19T04:13:39;98471.91;;;21.60;100.00
62164;BME280;48149;51.132;7.178;2022-08-19T04:16:05;98466.09;;;21.95;100.00
62164;BME280;48149;51.132;7.178;2022-08-19T04:18:31;98474.03;;;22.14;100.00
62164;BME280;48149;51.132;7.178;2022-08-19T04:20:57;98475.38;;;22.30;100.00
62164;BME280;48149;51.132;7.178;2022-08-19T04:23:23;98482.09;;;22.27;100.00
62164;BME280;48149;51.132;7.178;2022-08-19T04:25:48;98481.06;;;21.91;100.00
62164;BME280;48149;51.132;7.178;2022-08-19T04:28:16;98479.84;;;22.02;100.00
62164;BME280;48149;51.132;7.178;2022-08-19T04:30:42;98482.34;;;22.12;100.00
62164;BME280;48149;51.132;7.178;2022-08-19T04:33:08;98490.69;;;22.24;100.00
62164;BME280;48149;51.132;7.178;2022-08-19T04:35:38;98487.66;;;22.31;100.00
62164;BME280;48149;51.132;7.178;2022-08-19T04:38:05;98487.28;;;22.38;100.00
62164;BME280;48149;51.132;7.178;2022-08-19T04:40:31;98497.25;;;22.46;100.00
62164;BME280;48149;51.132;7.178;2022-08-19T04:43:15;98493.00;;;22.45;100.00
62164;BME280;48149;51.132;7.178;2022-08-19T04:45:41;98502.94;;;21.88;100.00
62164;BME280;48149;51.132;7.178;2022-08-19T04:48:07;98494.50;;;21.81;100.00
62164;BME280;48149;51.132;7.178;2022-08-19T04:50:33;98502.00;;;21.79;100.00
62164;BME280;48149;51.132;7.178;2022-08-19T04:52:58;98501.41;;;22.19;100.00
62164;BME280;48149;51.132;7.178;2022-08-19T04:55:24;98502.75;;;22.36;100.00
62164;BME280;48149;51.132;7.178;2022-08-19T04:57:54;98508.00;;;22.08;100.00
62164;BME280;48149;51.132;7.178;2022-08-19T05:00:19;98507.56;;;21.83;100.00
62164;BME280;48149;51.132;7.178;2022-08-19T05:02:44;98510.44;;;22.23;100.00
62164;BME280;48149;51.132;7.178;2022-08-19T05:05:10;98506.16;;;22.55;100.00
62164;BME280;48149;51.132;7.178;2022-08-19T05:07:35;98503.41;;;22.60;100.00
62164;BME280;48149;51.132;7.178;2022-08-19T05:10:00;98513.59;;;23.31;100.00
62164;BME280;48149;51.132;7.178;2022-08-19T05:12:27;98509.75;;;23.51;100.00
62164;BME280;48149;51.132;7.178;2022-08-19T05:14:53;98514.56;;;23.49;100.00
62164;BME280;48149;51.132;7.178;2022-08-19T05:17:19;98519.72;;;23.31;100.00
62164;BME280;48149;51.132;7.178;2022-08-19T05:19:44;98520.72;;;23.22;100.00
62164;BME280;48149;51.132;7.178;2022-08-19T05:22:28;98521.13;;;23.43;100.00
62164;BME280;48149;51.132;7.178;2022-08-19T05:24:57;98515.84;;;23.37;100.00
62164;BME280;48149;51.132;7.178;2022-08-19T05:27:22;98522.31;;;23.50;100.00
62164;BME280;48149;51.132;7.178;2022-08-19T05:29:49;98512.66;;;23.35;100.00
62164;BME280;48149;51.132;7.178;2022-08-19T05:32:14;98521.78;;;23.21;100.00
62164;BME280;48149;51.132;7.178;2022-08-19T05:34:39;98508.91;;;23.36;100.00
62164;BME280;48149;51.132;7.178;2022-08-19T05:37:06;98512.66;;;23.35;100.00
62164;BME280;48149;51.132;7.178;2022-08-19T05:39:34;98510.91;;;23.17;100.00
62164;BME280;48149;51.132;7.178;2022-08-19T05:42:04;98516.31;;;22.85;100.00
62164;BME280;48149;51.132;7.178;2022-08-19T05:44:32;98528.00;;;22.89;100.00
62164;BME280;48149;51.132;7.178;2022-08-19T05:46:59;98520.97;;;22.79;100.00
62164;BME280;48149;51.132;7.178;2022-08-19T05:49:25;98515.66;;;22.93;100.00
62164;BME280;48149;51.132;7.178;2022-08-19T05:51:52;98523.25;;;22.86;100.00
62164;BME280;48149;51.132;7.178;2022-08-19T05:54:20;98522.53;;;22.67;100.00
62164;BME280;48149;51.132;7.178;2022-08-19T05:56:45;98524.06;;;22.87;100.00
62164;BME280;48149;51.132;7.178;2022-08-19T05:59:13;98522.19;;;22.87;100.00
62164;BME280;48149;51.132;7.178;2022-08-19T06:01:39;98529.72;;;23.26;100.00
62164;BME280;48149;51.132;7.178;2022-08-19T06:04:05;98524.16;;;23.09;100.00
62164;BME280;48149;51.132;7.178;2022-08-19T06:06:31;98531.47;;;23.17;100.00
62164;BME280;48149;51.132;7.178;2022-08-19T06:08:59;98529.50;;;23.09;100.00
62164;BME280;48149;51.132;7.178;2022-08-19T06:11:31;98521.00;;;22.93;100.00
62164;BME280;48149;51.132;7.178;2022-08-19T06:14:00;98521.16;;;22.83;100.00
62164;BME280;48149;51.132;7.178;2022-08-19T06:16:26;98513.19;;;23.10;100.00
62164;BME280;48149;51.132;7.178;2022-08-19T06:18:52;98514.38;;;23.04;100.00
62164;BME280;48149;51.132;7.178;2022-08-19T06:21:21;98517.03;;;23.31;100.00
62164;BME280;48149;51.132;7.178;2022-08-19T06:23:46;98518.22;;;23.39;100.00
62164;BME280;48149;51.132;7.178;2022-08-19T06:26:12;98510.59;;;23.32;100.00
62164;BME280;48149;51.132;7.178;2022-08-19T06:28:38;98520.00;;;23.30;100.00
62164;BME280;48149;51.132;7.178;2022-08-19T06:31:07;98517.41;;;22.98;100.00
62164;BME280;48149;51.132;7.178;2022-08-19T06:33:35;98525.84;;;23.18;100.00
62164;BME280;48149;51.132;7.178;2022-08-19T06:36:02;98525.66;;;23.42;100.00
62164;BME280;48149;51.132;7.178;2022-08-19T06:38:27;98522.50;;;23.54;100.00
62164;BME280;48149;51.132;7.178;2022-08-19T06:41:05;98530.50;;;23.54;100.00
62164;BME280;48149;51.132;7.178;2022-08-19T06:43:30;98527.94;;;22.94;100.00
62164;BME280;48149;51.132;7.178;2022-08-19T06:45:56;98540.25;;;22.58;100.00
62164;BME280;48149;51.132;7.178;2022-08-19T06:48:21;98536.06;;;23.57;100.00
62164;BME280;48149;51.132;7.178;2022-08-19T06:50:47;98529.69;;;24.16;100.00
62164;BME280;48149;51.132;7.178;2022-08-19T06:53:15;98540.88;;;23.55;100.00
62164;BME280;48149;51.132;7.178;2022-08-19T06:55:41;98537.16;;;23.92;100.00
62164;BME280;48149;51.132;7.178;2022-08-19T06:58:06;98535.47;;;23.60;100.00
62164;BME280;48149;51.132;7.178;2022-08-19T07:00:32;98538.22;;;24.05;100.00
62164;BME280;48149;51.132;7.178;2022-08-19T07:02:57;98537.00;;;24.11;100.00
62164;BME280;48149;51.132;7.178;2022-08-19T07:05:23;98542.13;;;24.21;100.00
62164;BME280;48149;51.132;7.178;2022-08-19T07:07:49;98540.66;;;24.59;100.00
62164;BME280;48149;51.132;7.178;2022-08-19T07:10:15;98539.00;;;24.05;100.00
62164;BME280;48149;51.132;7.178;2022-08-19T07:12:40;98544.19;;;24.24;100.00
62164;BME280;48149;51.132;7.178;2022-08-19T07:15:06;98540.31;;;23.94;100.00
62164;BME280;48149;51.132;7.178;2022-08-19T07:17:33;98544.47;;;24.36;100.00
62164;BME280;48149;51.132;7.178;2022-08-19T07:20:02;98547.44;;;24.34;100.00
62164;BME280;48149;51.132;7.178;2022-08-19T07:22:29;98550.09;;;24.57;100.00
62164;BME280;48149;51.132;7.178;2022-08-19T07:24:56;98558.28;;;24.52;100.00
62164;BME280;48149;51.132;7.178;2022-08-19T07:27:25;98559.06;;;25.05;100.00
62164;BME280;48149;51.132;7.178;2022-08-19T07:29:52;98561.47;;;25.63;100.00
62164;BME280;48149;51.132;7.178;2022-08-19T07:32:17;98572.81;;;25.52;100.00
62164;BME280;48149;51.132;7.178;2022-08-19T07:34:42;98572.41;;;26.10;98.79
62164;BME280;48149;51.132;7.178;2022-08-19T07:37:10;98565.75;;;25.56;100.00
62164;BME280;48149;51.132;7.178;2022-08-19T07:39:36;98571.69;;;25.13;100.00
62164;BME280;48149;51.132;7.178;2022-08-19T07:42:03;98573.22;;;25.45;100.00
62164;BME280;48149;51.132;7.178;2022-08-19T07:44:31;98580.41;;;25.58;100.00
62164;BME280;48149;51.132;7.178;2022-08-19T07:46:56;98580.75;;;25.65;100.00
62164;BME280;48149;51.132;7.178;2022-08-19T07:49:23;98582.53;;;26.04;98.92
62164;BME280;48149;51.132;7.178;2022-08-19T07:51:50;98584.56;;;26.07;97.86
62164;BME280;48149;51.132;7.178;2022-08-19T07:54:17;98592.63;;;25.90;100.00
62164;BME280;48149;51.132;7.178;2022-08-19T07:56:42;98585.88;;;26.35;98.24
62164;BME280;48149;51.132;7.178;2022-08-19T07:59:08;98595.97;;;26.38;96.10
62164;BME280;48149;51.132;7.178;2022-08-19T08:01:35;98591.34;;;26.73;94.18
62164;BME280;48149;51.132;7.178;2022-08-19T08:04:01;98594.06;;;26.82;95.07
62164;BME280;48149;51.132;7.178;2022-08-19T08:06:44;98603.13;;;27.15;90.48
62164;BME280;48149;51.132;7.178;2022-08-19T08:09:36;98601.06;;;26.31;99.56
62164;BME280;48149;51.132;7.178;2022-08-19T08:12:04;98606.69;;;27.45;89.64
62164;BME280;48149;51.132;7.178;2022-08-19T08:14:33;98612.41;;;26.63;93.14
62164;BME280;48149;51.132;7.178;2022-08-19T08:17:00;98603.53;;;27.72;87.89
62164;BME280;48149;51.132;7.178;2022-08-19T08:19:26;98611.41;;;26.93;90.65
62164;BME280;48149;51.132;7.178;2022-08-19T08:21:55;98615.50;;;26.99;93.94
62164;BME280;48149;51.132;7.178;2022-08-19T08:24:21;98620.94;;;26.82;94.01
62164;BME280;48149;51.132;7.178;2022-08-19T08:26:46;98620.94;;;26.30;96.76
62164;BME280;48149;51.132;7.178;2022-08-19T08:29:12;98616.47;;;27.49;92.00
62164;BME280;48149;51.132;7.178;2022-08-19T08:31:41;98618.44;;;27.70;88.07
62164;BME280;48149;51.132;7.178;2022-08-19T08:34:07;98606.72;;;27.28;89.46
62164;BME280;48149;51.132;7.178;2022-08-19T08:36:35;98610.31;;;26.85;93.74
62164;BME280;48149;51.132;7.178;2022-08-19T08:39:02;98613.03;;;26.51;99.81
62164;BME280;48149;51.132;7.178;2022-08-19T08:43:55;98617.34;;;27.62;90.98
62164;BME280;48149;51.132;7.178;2022-08-19T08:51:38;98610.75;;;27.13;91.06
62164;BME280;48149;51.132;7.178;2022-08-19T08:54:07;98605.72;;;26.86;96.48
62164;BME280;48149;51.132;7.178;2022-08-19T08:56:32;98606.06;;;26.76;94.62
62164;BME280;48149;51.132;7.178;2022-08-19T08:58:59;98597.19;;;27.47;91.82
62164;BME280;48149;51.132;7.178;2022-08-19T09:01:25;98605.25;;;27.39;89.49
62164;BME280;48149;51.132;7.178;2022-08-19T09:03:50;98608.91;;;27.72;88.49
62164;BME280;48149;51.132;7.178;2022-08-19T09:06:29;98606.31;;;27.55;89.14
62164;BME280;48149;51.132;7.178;2022-08-19T09:16:27;98616.53;;;28.62;81.11
62164;BME280;48149;51.132;7.178;2022-08-19T09:18:54;98605.97;;;28.89;78.81
62164;BME280;48149;51.132;7.178;2022-08-19T09:21:23;98605.81;;;28.74;80.35
62164;BME280;48149;51.132;7.178;2022-08-19T09:23:49;98606.84;;;29.38;75.93
62164;BME280;48149;51.132;7.178;2022-08-19T09:26:15;98607.00;;;28.64;77.34
62164;BME280;48149;51.132;7.178;2022-08-19T09:28:42;98611.63;;;28.22;82.88
62164;BME280;48149;51.132;7.178;2022-08-19T09:31:09;98610.84;;;29.20;77.05
62164;BME280;48149;51.132;7.178;2022-08-19T09:33:34;98614.06;;;29.71;72.21
62164;BME280;48149;51.132;7.178;2022-08-19T09:36:05;98618.47;;;30.39;69.70
62164;BME280;48149;51.132;7.178;2022-08-19T09:38:33;98614.75;;;30.44;67.86
62164;BME280;48149;51.132;7.178;2022-08-19T09:41:11;98608.31;;;31.66;62.34
62164;BME280;48149;51.132;7.178;2022-08-19T09:43:38;98603.03;;;30.67;61.78
62164;BME280;48149;51.132;7.178;2022-08-19T09:46:04;98598.34;;;33.99;50.53
62164;BME280;48149;51.132;7.178;2022-08-19T09:48:34;98605.63;;;31.51;60.87
62164;BME280;48149;51.132;7.178;2022-08-19T09:51:06;98599.94;;;33.51;50.16
62164;BME280;48149;51.132;7.178;2022-08-19T09:53:34;98602.81;;;34.44;48.42
62164;BME280;48149;51.132;7.178;2022-08-19T09:56:00;98605.69;;;32.43;54.78
62164;BME280;48149;51.132;7.178;2022-08-19T09:58:26;98603.84;;;34.66;50.87
62164;BME280;48149;51.132;7.178;2022-08-19T10:00:56;98601.06;;;32.44;55.44
62164;BME280;48149;51.132;7.178;2022-08-19T10:03:22;98606.56;;;32.86;53.93
62164;BME280;48149;51.132;7.178;2022-08-19T10:05:48;98603.28;;;30.23;65.79
62164;BME280;48149;51.132;7.178;2022-08-19T10:08:13;98600.09;;;30.73;64.58
62164;BME280;48149;51.132;7.178;2022-08-19T10:10:41;98595.56;;;31.36;63.00
62164;BME280;48149;51.132;7.178;2022-08-19T10:13:09;98596.97;;;32.31;54.66
62164;BME280;48149;51.132;7.178;2022-08-19T10:15:34;98590.50;;;31.03;61.03
62164;BME280;48149;51.132;7.178;2022-08-19T10:18:01;98603.94;;;29.80;66.63
62164;BME280;48149;51.132;7.178;2022-08-19T10:20:27;98594.16;;;30.39;65.92
62164;BME280;48149;51.132;7.178;2022-08-19T10:22:52;98602.81;;;29.93;68.20
62164;BME280;48149;51.132;7.178;2022-08-19T10:25:17;98600.13;;;29.44;68.84
62164;BME280;48149;51.132;7.178;2022-08-19T10:27:44;98599.88;;;29.74;68.88
62164;BME280;48149;51.132;7.178;2022-08-19T10:30:09;98597.00;;;33.37;53.75
62164;BME280;48149;51.132;7.178;2022-08-19T10:32:34;98604.44;;;32.75;53.00
62164;BME280;48149;51.132;7.178;2022-08-19T10:35:00;98601.69;;;31.17;58.88
62164;BME280;48149;51.132;7.178;2022-08-19T10:37:25;98613.78;;;29.15;66.99
62164;BME280;48149;51.132;7.178;2022-08-19T10:39:51;98599.88;;;33.48;51.32
62164;BME280;48149;51.132;7.178;2022-08-19T10:42:17;98592.25;;;36.15;43.50
62164;BME280;48149;51.132;7.178;2022-08-19T10:44:43;98599.06;;;33.44;47.90
62164;BME280;48149;51.132;7.178;2022-08-19T10:47:09;98602.78;;;35.14;42.69
62164;BME280;48149;51.132;7.178;2022-08-19T10:49:35;98593.53;;;38.26;37.14
62164;BME280;48149;51.132;7.178;2022-08-19T10:52:20;98585.72;;;33.35;47.67
62164;BME280;48149;51.132;7.178;2022-08-19T10:55:03;98583.97;;;37.12;38.73
62164;BME280;48149;51.132;7.178;2022-08-19T10:57:47;98586.06;;;35.12;39.25
62164;BME280;48149;51.132;7.178;2022-08-19T11:00:13;98587.50;;;36.05;38.41
62164;BME280;48149;51.132;7.178;2022-08-19T11:02:38;98585.66;;;36.26;37.82
62164;BME280;48149;51.132;7.178;2022-08-19T11:05:04;98597.97;;;35.41;39.81
62164;BME280;48149;51.132;7.178;2022-08-19T11:07:30;98591.84;;;36.13;38.19
62164;BME280;48149;51.132;7.178;2022-08-19T11:09:55;98581.44;;;36.43;36.68
62164;BME280;48149;51.132;7.178;2022-08-19T11:12:22;98577.16;;;36.46;37.03
62164;BME280;48149;51.132;7.178;2022-08-19T11:14:47;98575.25;;;36.53;37.88
62164;BME280;48149;51.132;7.178;2022-08-19T11:17:14;98582.31;;;35.31;38.49
62164;BME280;48149;51.132;7.178;2022-08-19T11:19:40;98583.19;;;33.46;43.34
62164;BME280;48149;51.132;7.178;2022-08-19T11:22:08;98564.03;;;37.32;35.95
62164;BME280;48149;51.132;7.178;2022-08-19T11:24:34;98573.78;;;36.84;36.97
62164;BME280;48149;51.132;7.178;2022-08-19T11:27:03;98573.50;;;35.01;38.36
62164;BME280;48149;51.132;7.178;2022-08-19T11:29:29;98578.09;;;34.56;40.83
62164;BME280;48149;51.132;7.178;2022-08-19T11:31:55;98574.91;;;36.79;35.72
62164;BME280;48149;51.132;7.178;2022-08-19T11:34:23;98560.16;;;37.26;35.29
62164;BME280;48149;51.132;7.178;2022-08-19T11:36:49;98564.31;;;35.16;40.13
62164;BME280;48149;51.132;7.178;2022-08-19T11:39:16;98566.75;;;33.88;44.18
62164;BME280;48149;51.132;7.178;2022-08-19T11:41:41;98565.59;;;37.23;35.16
62164;BME280;48149;51.132;7.178;2022-08-19T11:44:07;98562.84;;;36.77;35.46
62164;BME280;48149;51.132;7.178;2022-08-19T11:46:33;98560.84;;;37.87;34.15
62164;BME280;48149;51.132;7.178;2022-08-19T11:48:59;98550.94;;;36.06;37.75
62164;BME280;48149;51.132;7.178;2022-08-19T11:51:26;98555.03;;;30.77;51.47
62164;BME280;48149;51.132;7.178;2022-08-19T11:53:52;98563.94;;;30.93;52.67
62164;BME280;48149;51.132;7.178;2022-08-19T11:56:24;98555.75;;;34.07;43.04
62164;BME280;48149;51.132;7.178;2022-08-19T11:58:50;98563.50;;;36.38;35.60
62164;BME280;48149;51.132;7.178;2022-08-19T12:01:16;98557.03;;;37.07;34.38
62164;BME280;48149;51.132;7.178;2022-08-19T12:03:43;98547.25;;;39.15;30.98
62164;BME280;48149;51.132;7.178;2022-08-19T12:06:09;98548.34;;;39.28;30.58
62164;BME280;48149;51.132;7.178;2022-08-19T12:08:35;98548.81;;;38.64;31.58
62164;BME280;48149;51.132;7.178;2022-08-19T12:11:00;98553.78;;;38.83;31.71
62164;BME280;48149;51.132;7.178;2022-08-19T12:13:27;98558.88;;;35.16;39.33
62164;BME280;48149;51.132;7.178;2022-08-19T12:15:52;98554.91;;;35.57;38.90
62164;BME280;48149;51.132;7.178;2022-08-19T12:18:18;98554.69;;;37.58;33.72
62164;BME280;48149;51.132;7.178;2022-08-19T12:20:43;98558.59;;;37.04;34.14
62164;BME280;48149;51.132;7.178;2022-08-19T12:23:10;98551.94;;;36.87;35.00
62164;BME280;48149;51.132;7.178;2022-08-19T12:25:36;98544.47;;;37.94;32.63
62164;BME280;48149;51.132;7.178;2022-08-19T12:28:02;98558.41;;;39.41;29.92
62164;BME280;48149;51.132;7.178;2022-08-19T12:30:27;98549.50;;;38.79;29.13
62164;BME280;48149;51.132;7.178;2022-08-19T12:32:53;98550.66;;;40.08;27.74
62164;BME280;48149;51.132;7.178;2022-08-19T12:35:18;98551.53;;;36.82;33.42
62164;BME280;48149;51.132;7.178;2022-08-19T12:37:45;98543.41;;;32.85;42.24
62164;BME280;48149;51.132;7.178;2022-08-19T12:40:11;98543.03;;;35.90;37.65
62164;BME280;48149;51.132;7.178;2022-08-19T12:42:39;98535.53;;;35.66;37.12
62164;BME280;48149;51.132;7.178;2022-08-19T12:45:09;98532.44;;;37.56;32.17
62164;BME280;48149;51.132;7.178;2022-08-19T12:47:35;98533.25;;;37.07;33.17
62164;BME280;48149;51.132;7.178;2022-08-19T12:50:00;98539.69;;;38.16;31.03
62164;BME280;48149;51.132;7.178;2022-08-19T12:52:26;98532.03;;;36.69;32.41
62164;BME280;48149;51.132;7.178;2022-08-19T12:54:53;98528.94;;;37.52;30.00
62164;BME280;48149;51.132;7.178;2022-08-19T12:57:21;98534.38;;;37.66;29.95
62164;BME280;48149;51.132;7.178;2022-08-19T12:59:51;98530.09;;;36.66;31.61
62164;BME280;48149;51.132;7.178;2022-08-19T13:02:18;98537.84;;;34.36;34.75
62164;BME280;48149;51.132;7.178;2022-08-19T13:04:44;98521.47;;;36.43;32.55
62164;BME280;48149;51.132;7.178;2022-08-19T13:07:10;98514.69;;;36.02;32.62
62164;BME280;48149;51.132;7.178;2022-08-19T13:09:35;98506.84;;;33.51;35.43
62164;BME280;48149;51.132;7.178;2022-08-19T13:12:01;98518.41;;;36.59;32.15
62164;BME280;48149;51.132;7.178;2022-08-19T13:14:35;98512.31;;;38.23;29.57